sensor_id;sensor_type;location;lat;lon;timestamp;pressure;altitude;pressure_sealevel;temperature;humidity
596;BME280;19946;49.306;11.350;2023-08-30T00:02:58;95718.97;;;11.91;100.00
596;BME280;19946;49.306;11.350;2023-08-30T00:06:02;95648.28;;;11.55;100.00
596;BME280;19946;49.306;11.350;2023-08-30T00:09:03;95700.88;;;11.74;100.00
596;BME280;19946;49.306;11.350;2023-08-30T00:12:04;95685.03;;;11.77;100.00
596;BME280;19946;49.306;11.350;2023-08-30T00:15:05;95706.88;;;12.00;100.00
596;BME280;19946;49.306;11.350;2023-08-30T00:18:06;95683.53;;;11.74;100.00
596;BME280;19946;49.306;11.350;2023-08-30T00:21:06;95672.81;;;11.69;100.00
596;BME280;19946;49.306;11.350;2023-08-30T00:24:07;95723.69;;;11.88;100.00
596;BME280;19946;49.306;11.350;2023-08-30T00:27:07;95667.00;;;11.41;100.00
596;BME280;19946;49.306;11.350;2023-08-30T00:30:08;95737.28;;;11.90;100.00
596;BME280;19946;49.306;11.350;2023-08-30T00:33:09;95729.19;;;11.93;100.00
596;BME280;19946;49.306;11.350;2023-08-30T00:36:09;95695.41;;;11.77;100.00
596;BME280;19946;49.306;11.350;2023-08-30T00:39:09;95688.97;;;11.55;100.00
596;BME280;19946;49.306;11.350;2023-08-30T00:42:10;95686.84;;;11.58;100.00
596;BME280;19946;49.306;11.350;2023-08-30T00:45:10;95662.78;;;11.40;100.00
596;BME280;19946;49.306;11.350;2023-08-30T00:48:11;95666.28;;;11.57;100.00
596;BME280;19946;49.306;11.350;2023-08-30T00:51:12;95632.59;;;11.31;100.00
596;BME280;19946;49.306;11.350;2023-08-30T00:54:12;95727.25;;;11.87;100.00
596;BME280;19946;49.306;11.350;2023-08-30T00:57:12;95689.16;;;11.69;100.00
596;BME280;19946;49.306;11.350;2023-08-30T01:00:13;95660.59;;;11.53;100.00
596;BME280;19946;49.306;11.350;2023-08-30T01:03:14;95672.59;;;11.54;100.00
596;BME280;19946;49.306;11.350;2023-08-30T01:06:15;95703.91;;;11.69;100.00
596;BME280;19946;49.306;11.350;2023-08-30T01:09:15;95704.09;;;11.67;100.00
596;BME280;19946;49.306;11.350;2023-08-30T01:12:20;95641.63;;;11.27;100.00
596;BME280;19946;49.306;11.350;2023-08-30T01:15:22;95682.91;;;11.46;100.00
596;BME280;19946;49.306;11.350;2023-08-30T01:18:29;95684.75;;;11.54;100.00
596;BME280;19946;49.306;11.350;2023-08-30T01:21:45;95685.19;;;11.49;100.00
596;BME280;19946;49.306;11.350;2023-08-30T01:25:00;95654.81;;;11.33;100.00
596;BME280;19946;49.306;11.350;2023-08-30T01:28:07;95677.53;;;11.40;100.00
596;BME280;19946;49.306;11.350;2023-08-30T01:31:09;95696.31;;;11.42;100.00
596;BME280;19946;49.306;11.350;2023-08-30T01:34:10;95665.88;;;11.18;100.00
596;BME280;19946;49.306;11.350;2023-08-30T01:37:12;95729.47;;;11.56;100.00
596;BME280;19946;49.306;11.350;2023-08-30T01:40:15;95651.91;;;11.11;100.00
596;BME280;19946;49.306;11.350;2023-08-30T01:43:17;95688.50;;;11.33;100.00
596;BME280;19946;49.306;11.350;2023-08-30T01:46:18;95740.34;;;11.59;100.00
596;BME280;19946;49.306;11.350;2023-08-30T01:49:20;95684.75;;;11.28;100.00
596;BME280;19946;49.306;11.350;2023-08-30T01:52:22;95731.09;;;11.57;100.00
596;BME280;19946;49.306;11.350;2023-08-30T01:55:24;95726.00;;;11.47;100.00
596;BME280;19946;49.306;11.350;2023-08-30T01:58:26;95649.88;;;10.96;100.00
596;BME280;19946;49.306;11.350;2023-08-30T02:01:26;95672.34;;;11.14;100.00
596;BME280;19946;49.306;11.350;2023-08-30T02:04:27;95724.88;;;11.50;100.00
596;BME280;19946;49.306;11.350;2023-08-30T02:07:43;95684.47;;;11.39;100.00
596;BME280;19946;49.306;11.350;2023-08-30T02:10:52;95660.41;;;11.21;100.00
596;BME280;19946;49.306;11.350;2023-08-30T02:13:57;95649.88;;;11.22;100.00
596;BME280;19946;49.306;11.350;2023-08-30T02:16:58;95717.38;;;11.64;100.00
596;BME280;19946;49.306;11.350;2023-08-30T02:19:58;95705.38;;;11.38;100.00
596;BME280;19946;49.306;11.350;2023-08-30T02:22:59;95693.66;;;11.08;100.00
596;BME280;19946;49.306;11.350;2023-08-30T02:26:00;95724.94;;;11.32;100.00
596;BME280;19946;49.306;11.350;2023-08-30T02:29:00;95668.69;;;10.98;100.00
596;BME280;19946;49.306;11.350;2023-08-30T02:32:00;95739.19;;;11.54;100.00
596;BME280;19946;49.306;11.350;2023-08-30T02:35:01;95687.28;;;11.20;100.00
596;BME280;19946;49.306;11.350;2023-08-30T02:38:02;95687.00;;;11.23;100.00
596;BME280;19946;49.306;11.350;2023-08-30T02:41:05;95723.72;;;11.44;100.00
596;BME280;19946;49.306;11.350;2023-08-30T02:44:07;95720.63;;;11.41;100.00
596;BME280;19946;49.306;11.350;2023-08-30T02:47:08;95710.97;;;11.51;100.00
596;BME280;19946;49.306;11.350;2023-08-30T02:50:09;95720.47;;;11.68;100.00
596;BME280;19946;49.306;11.350;2023-08-30T02:53:09;95720.00;;;11.73;100.00
596;BME280;19946;49.306;11.350;2023-08-30T02:56:09;95639.16;;;11.17;100.00
596;BME280;19946;49.306;11.350;2023-08-30T02:59:11;95720.72;;;11.83;100.00
596;BME280;19946;49.306;11.350;2023-08-30T03:02:12;95693.41;;;11.70;100.00
596;BME280;19946;49.306;11.350;2023-08-30T03:05:13;95706.81;;;11.92;100.00
596;BME280;19946;49.306;11.350;2023-08-30T03:08:13;95682.94;;;11.80;100.00
596;BME280;19946;49.306;11.350;2023-08-30T03:11:14;95705.16;;;11.83;100.00
596;BME280;19946;49.306;11.350;2023-08-30T03:14:25;95701.13;;;11.62;100.00
596;BME280;19946;49.306;11.350;2023-08-30T03:17:25;95715.69;;;11.81;100.00
596;BME280;19946;49.306;11.350;2023-08-30T03:20:26;95706.97;;;11.90;100.00
596;BME280;19946;49.306;11.350;2023-08-30T03:23:30;95706.50;;;11.95;100.00
596;BME280;19946;49.306;11.350;2023-08-30T03:26:31;95624.03;;;11.39;100.00
596;BME280;19946;49.306;11.350;2023-08-30T03:29:32;95680.66;;;11.77;100.00
596;BME280;19946;49.306;11.350;2023-08-30T03:32:33;95684.06;;;11.78;100.00
596;BME280;19946;49.306;11.350;2023-08-30T03:35:34;95724.00;;;11.93;100.00
596;BME280;19946;49.306;11.350;2023-08-30T03:38:35;95644.50;;;11.50;100.00
596;BME280;19946;49.306;11.350;2023-08-30T03:41:35;95712.34;;;11.89;100.00
596;BME280;19946;49.306;11.350;2023-08-30T03:44:37;95670.13;;;11.53;100.00
596;BME280;19946;49.306;11.350;2023-08-30T03:47:38;95688.88;;;11.73;100.00
596;BME280;19946;49.306;11.350;2023-08-30T03:50:38;95723.03;;;11.94;100.00
596;BME280;19946;49.306;11.350;2023-08-30T03:53:40;95702.25;;;11.86;100.00
596;BME280;19946;49.306;11.350;2023-08-30T03:56:40;95641.44;;;11.46;100.00
596;BME280;19946;49.306;11.350;2023-08-30T03:59:41;95686.44;;;11.71;100.00
596;BME280;19946;49.306;11.350;2023-08-30T04:02:41;95716.22;;;11.93;100.00
596;BME280;19946;49.306;11.350;2023-08-30T04:05:42;95703.88;;;11.87;100.00
596;BME280;19946;49.306;11.350;2023-08-30T04:08:42;95663.03;;;11.55;100.00
596;BME280;19946;49.306;11.350;2023-08-30T04:11:43;95659.22;;;11.41;100.00
596;BME280;19946;49.306;11.350;2023-08-30T04:14:44;95727.94;;;11.71;100.00
596;BME280;19946;49.306;11.350;2023-08-30T04:17:45;95706.81;;;11.32;100.00
596;BME280;19946;49.306;11.350;2023-08-30T04:20:46;95683.31;;;11.33;100.00
596;BME280;19946;49.306;11.350;2023-08-30T04:23:46;95681.81;;;11.23;100.00
596;BME280;19946;49.306;11.350;2023-08-30T04:26:47;95651.53;;;11.23;100.00
596;BME280;19946;49.306;11.350;2023-08-30T04:29:52;95681.03;;;11.56;100.00
596;BME280;19946;49.306;11.350;2023-08-30T04:32:52;95735.56;;;11.73;100.00
596;BME280;19946;49.306;11.350;2023-08-30T04:35:53;95732.09;;;11.90;100.00
596;BME280;19946;49.306;11.350;2023-08-30T04:38:54;95689.25;;;11.52;100.00
596;BME280;19946;49.306;11.350;2023-08-30T04:41:54;95689.09;;;11.53;100.00
596;BME280;19946;49.306;11.350;2023-08-30T04:44:55;95730.94;;;11.84;100.00
596;BME280;19946;49.306;11.350;2023-08-30T04:47:57;95678.84;;;11.44;100.00
596;BME280;19946;49.306;11.350;2023-08-30T04:51:02;95700.19;;;11.63;100.00
596;BME280;19946;49.306;11.350;2023-08-30T04:54:05;95713.16;;;11.63;100.00
596;BME280;19946;49.306;11.350;2023-08-30T04:57:06;95724.94;;;11.84;100.00
596;BME280;19946;49.306;11.350;2023-08-30T05:00:08;95673.56;;;11.53;100.00
596;BME280;19946;49.306;11.350;2023-08-30T05:03:08;95735.75;;;12.05;100.00
596;BME280;19946;49.306;11.350;2023-08-30T05:06:09;95682.13;;;11.80;100.00
596;BME280;19946;49.306;11.350;2023-08-30T05:09:09;95651.03;;;11.54;100.00
596;BME280;19946;49.306;11.350;2023-08-30T05:12:10;95678.56;;;11.81;100.00
596;BME280;19946;49.306;11.350;2023-08-30T05:15:10;95702.97;;;12.04;100.00
596;BME280;19946;49.306;11.350;2023-08-30T05:18:11;95680.00;;;11.75;100.00
596;BME280;19946;49.306;11.350;2023-08-30T05:21:11;95714.16;;;12.04;100.00
596;BME280;19946;49.306;11.350;2023-08-30T05:24:12;95710.38;;;11.57;100.00
596;BME280;19946;49.306;11.350;2023-08-30T05:27:12;95719.78;;;11.92;100.00
596;BME280;19946;49.306;11.350;2023-08-30T05:30:14;95658.84;;;11.36;100.00
596;BME280;19946;49.306;11.350;2023-08-30T05:33:15;95729.63;;;11.80;100.00
596;BME280;19946;49.306;11.350;2023-08-30T05:36:22;95654.28;;;11.56;100.00
596;BME280;19946;49.306;11.350;2023-08-30T05:39:35;95718.94;;;11.83;100.00
596;BME280;19946;49.306;11.350;2023-08-30T05:42:35;95698.59;;;12.04;100.00
596;BME280;19946;49.306;11.350;2023-08-30T05:45:36;95718.16;;;12.33;100.00
596;BME280;19946;49.306;11.350;2023-08-30T05:48:37;95718.28;;;12.23;100.00
596;BME280;19946;49.306;11.350;2023-08-30T05:51:37;95714.47;;;12.43;100.00
596;BME280;19946;49.306;11.350;2023-08-30T05:54:37;95685.19;;;12.17;100.00
596;BME280;19946;49.306;11.350;2023-08-30T05:57:38;95695.88;;;12.14;100.00
596;BME280;19946;49.306;11.350;2023-08-30T06:00:38;95705.66;;;12.28;100.00
596;BME280;19946;49.306;11.350;2023-08-30T06:03:38;95712.75;;;12.10;100.00
596;BME280;19946;49.306;11.350;2023-08-30T06:06:39;95728.72;;;12.39;100.00
596;BME280;19946;49.306;11.350;2023-08-30T06:09:39;95646.53;;;12.06;100.00
596;BME280;19946;49.306;11.350;2023-08-30T06:12:39;95706.50;;;12.45;100.00
596;BME280;19946;49.306;11.350;2023-08-30T06:15:40;95720.50;;;12.76;100.00
596;BME280;19946;49.306;11.350;2023-08-30T06:18:40;95731.31;;;12.39;100.00
596;BME280;19946;49.306;11.350;2023-08-30T06:21:41;95704.03;;;12.27;100.00
596;BME280;19946;49.306;11.350;2023-08-30T06:24:41;95667.31;;;12.06;100.00
596;BME280;19946;49.306;11.350;2023-08-30T06:27:54;95692.38;;;12.39;100.00
596;BME280;19946;49.306;11.350;2023-08-30T06:30:55;95727.63;;;12.58;100.00
596;BME280;19946;49.306;11.350;2023-08-30T06:33:57;95726.50;;;12.53;100.00
596;BME280;19946;49.306;11.350;2023-08-30T06:36:58;95731.06;;;12.75;100.00
596;BME280;19946;49.306;11.350;2023-08-30T06:39:58;95735.00;;;12.95;100.00
596;BME280;19946;49.306;11.350;2023-08-30T06:42:58;95685.13;;;12.75;100.00
596;BME280;19946;49.306;11.350;2023-08-30T06:45:59;95728.31;;;13.09;100.00
596;BME280;19946;49.306;11.350;2023-08-30T06:48:59;95734.66;;;12.98;100.00
596;BME280;19946;49.306;11.350;2023-08-30T06:52:00;95723.94;;;12.93;100.00
596;BME280;19946;49.306;11.350;2023-08-30T06:55:04;95683.50;;;12.91;100.00
596;BME280;19946;49.306;11.350;2023-08-30T06:58:04;95688.84;;;13.13;100.00
596;BME280;19946;49.306;11.350;2023-08-30T07:01:05;95629.75;;;12.75;100.00
596;BME280;19946;49.306;11.350;2023-08-30T07:04:05;95721.97;;;13.11;100.00
596;BME280;19946;49.306;11.350;2023-08-30T07:07:06;95689.84;;;13.21;100.00
596;BME280;19946;49.306;11.350;2023-08-30T07:10:06;95678.59;;;13.12;100.00
596;BME280;19946;49.306;11.350;2023-08-30T07:13:07;95646.63;;;12.55;100.00
596;BME280;19946;49.306;11.350;2023-08-30T07:16:10;95684.63;;;12.64;100.00
596;BME280;19946;49.306;11.350;2023-08-30T07:19:10;95725.41;;;13.12;100.00
596;BME280;19946;49.306;11.350;2023-08-30T07:22:11;95726.53;;;13.09;100.00
596;BME280;19946;49.306;11.350;2023-08-30T07:25:11;95729.94;;;12.94;100.00
596;BME280;19946;49.306;11.350;2023-08-30T07:28:13;95694.41;;;13.19;100.00
596;BME280;19946;49.306;11.350;2023-08-30T07:31:13;95720.19;;;13.44;100.00
596;BME280;19946;49.306;11.350;2023-08-30T07:34:18;95694.19;;;13.44;100.00
596;BME280;19946;49.306;11.350;2023-08-30T07:37:19;95690.81;;;13.28;100.00
596;BME280;19946;49.306;11.350;2023-08-30T07:40:20;95693.72;;;12.68;100.00
596;BME280;19946;49.306;11.350;2023-08-30T07:43:24;95716.31;;;13.08;100.00
596;BME280;19946;49.306;11.350;2023-08-30T07:46:24;95677.00;;;12.87;100.00
596;BME280;19946;49.306;11.350;2023-08-30T07:49:25;95731.44;;;13.37;100.00
596;BME280;19946;49.306;11.350;2023-08-30T07:52:26;95669.03;;;12.88;100.00
596;BME280;19946;49.306;11.350;2023-08-30T07:55:26;95677.16;;;12.77;100.00
596;BME280;19946;49.306;11.350;2023-08-30T07:58:26;95623.59;;;12.52;100.00
596;BME280;19946;49.306;11.350;2023-08-30T08:01:27;95721.84;;;13.05;100.00
596;BME280;19946;49.306;11.350;2023-08-30T08:04:27;95718.91;;;13.32;100.00
596;BME280;19946;49.306;11.350;2023-08-30T08:07:27;95723.47;;;13.06;100.00
596;BME280;19946;49.306;11.350;2023-08-30T08:10:31;95683.16;;;13.02;100.00
596;BME280;19946;49.306;11.350;2023-08-30T08:13:32;95724.22;;;14.18;100.00
596;BME280;19946;49.306;11.350;2023-08-30T08:16:32;95718.91;;;14.04;100.00
596;BME280;19946;49.306;11.350;2023-08-30T08:19:32;95646.00;;;12.85;100.00
596;BME280;19946;49.306;11.350;2023-08-30T08:22:33;95720.47;;;13.66;100.00
596;BME280;19946;49.306;11.350;2023-08-30T08:25:33;95736.75;;;13.68;100.00
596;BME280;19946;49.306;11.350;2023-08-30T08:28:33;95682.97;;;13.99;100.00
596;BME280;19946;49.306;11.350;2023-08-30T08:31:35;95726.78;;;14.66;100.00
596;BME280;19946;49.306;11.350;2023-08-30T08:34:35;95659.25;;;13.94;100.00
596;BME280;19946;49.306;11.350;2023-08-30T08:37:35;95676.38;;;14.19;100.00
596;BME280;19946;49.306;11.350;2023-08-30T08:40:37;95681.66;;;14.34;100.00
596;BME280;19946;49.306;11.350;2023-08-30T08:43:40;95674.25;;;14.54;100.00
596;BME280;19946;49.306;11.350;2023-08-30T08:46:41;95716.19;;;15.27;100.00
596;BME280;19946;49.306;11.350;2023-08-30T08:49:42;95716.91;;;15.59;100.00
596;BME280;19946;49.306;11.350;2023-08-30T08:52:43;95719.44;;;15.82;100.00
596;BME280;19946;49.306;11.350;2023-08-30T08:55:44;95696.78;;;15.67;100.00
596;BME280;19946;49.306;11.350;2023-08-30T08:58:46;95688.50;;;14.35;100.00
596;BME280;19946;49.306;11.350;2023-08-30T09:01:47;95697.91;;;14.44;100.00
596;BME280;19946;49.306;11.350;2023-08-30T09:04:47;95683.25;;;15.12;100.00
596;BME280;19946;49.306;11.350;2023-08-30T09:07:48;95638.50;;;14.40;100.00
596;BME280;19946;49.306;11.350;2023-08-30T09:10:53;95705.13;;;14.88;100.00
596;BME280;19946;49.306;11.350;2023-08-30T09:13:54;95727.00;;;15.24;100.00
596;BME280;19946;49.306;11.350;2023-08-30T09:16:58;95661.03;;;15.16;100.00
596;BME280;19946;49.306;11.350;2023-08-30T09:20:08;95727.19;;;15.23;100.00
596;BME280;19946;49.306;11.350;2023-08-30T09:23:21;95727.53;;;15.20;100.00
596;BME280;19946;49.306;11.350;2023-08-30T09:26:25;95623.44;;;15.77;100.00
596;BME280;19946;49.306;11.350;2023-08-30T09:29:26;95659.25;;;15.83;100.00
596;BME280;19946;49.306;11.350;2023-08-30T09:32:26;95688.44;;;16.73;100.00
596;BME280;19946;49.306;11.350;2023-08-30T09:35:26;95732.91;;;16.44;100.00
596;BME280;19946;49.306;11.350;2023-08-30T09:38:26;95726.16;;;16.64;100.00
596;BME280;19946;49.306;11.350;2023-08-30T09:41:27;95673.16;;;16.98;100.00
596;BME280;19946;49.306;11.350;2023-08-30T09:44:29;95613.34;;;15.59;100.00
596;BME280;19946;49.306;11.350;2023-08-30T09:47:30;95664.56;;;15.90;100.00
596;BME280;19946;49.306;11.350;2023-08-30T09:50:34;95649.84;;;16.75;100.00
596;BME280;19946;49.306;11.350;2023-08-30T09:53:40;95654.13;;;17.32;100.00
596;BME280;19946;49.306;11.350;2023-08-30T09:56:43;95647.94;;;17.40;100.00
596;BME280;19946;49.306;11.350;2023-08-30T09:59:44;95688.41;;;17.65;100.00
596;BME280;19946;49.306;11.350;2023-08-30T10:02:45;95706.47;;;16.68;100.00
596;BME280;19946;49.306;11.350;2023-08-30T10:05:45;95693.03;;;17.42;100.00
596;BME280;19946;49.306;11.350;2023-08-30T10:08:47;95677.59;;;18.16;100.00
596;BME280;19946;49.306;11.350;2023-08-30T10:11:49;95687.16;;;17.96;100.00
596;BME280;19946;49.306;11.350;2023-08-30T10:14:49;95681.88;;;17.27;100.00
596;BME280;19946;49.306;11.350;2023-08-30T10:17:52;95669.81;;;17.32;100.00
596;BME280;19946;49.306;11.350;2023-08-30T10:20:54;95649.28;;;17.98;100.00
596;BME280;19946;49.306;11.350;2023-08-30T10:23:55;95647.91;;;18.02;100.00
596;BME280;19946;49.306;11.350;2023-08-30T10:26:57;95624.59;;;18.20;100.00
596;BME280;19946;49.306;11.350;2023-08-30T10:30:01;95642.66;;;17.05;100.00
596;BME280;19946;49.306;11.350;2023-08-30T10:33:11;95670.81;;;17.31;100.00
596;BME280;19946;49.306;11.350;2023-08-30T10:36:20;95646.72;;;18.05;100.00
596;BME280;19946;49.306;11.350;2023-08-30T10:39:32;95639.78;;;17.84;100.00
596;BME280;19946;49.306;11.350;2023-08-30T10:42:33;95672.47;;;17.95;100.00
596;BME280;19946;49.306;11.350;2023-08-30T10:45:34;95673.97;;;17.48;100.00
596;BME280;19946;49.306;11.350;2023-08-30T10:48:36;95654.75;;;17.06;100.00
596;BME280;19946;49.306;11.350;2023-08-30T10:51:40;95629.00;;;17.66;100.00
596;BME280;19946;49.306;11.350;2023-08-30T10:54:41;95635.53;;;17.48;100.00
596;BME280;19946;49.306;11.350;2023-08-30T10:57:42;95639.09;;;17.41;100.00
596;BME280;19946;49.306;11.350;2023-08-30T11:00:46;95654.66;;;17.00;100.00
596;BME280;19946;49.306;11.350;2023-08-30T11:03:47;95610.63;;;16.97;100.00
596;BME280;19946;49.306;11.350;2023-08-30T11:06:50;95567.00;;;16.55;100.00
596;BME280;19946;49.306;11.350;2023-08-30T11:09:52;95676.53;;;17.63;100.00
596;BME280;19946;49.306;11.350;2023-08-30T11:12:52;95619.97;;;18.22;100.00
596;BME280;19946;49.306;11.350;2023-08-30T11:15:53;95594.09;;;18.67;100.00
596;BME280;19946;49.306;11.350;2023-08-30T11:18:53;95622.53;;;18.70;100.00
596;BME280;19946;49.306;11.350;2023-08-30T11:21:54;95639.72;;;18.92;100.00
596;BME280;19946;49.306;11.350;2023-08-30T11:24:54;95605.00;;;18.90;100.00
596;BME280;19946;49.306;11.350;2023-08-30T11:28:02;95647.72;;;18.58;100.00
596;BME280;19946;49.306;11.350;2023-08-30T11:31:03;95655.53;;;18.45;100.00
596;BME280;19946;49.306;11.350;2023-08-30T11:34:03;95605.28;;;18.41;100.00
596;BME280;19946;49.306;11.350;2023-08-30T11:37:04;95643.69;;;18.01;100.00
596;BME280;19946;49.306;11.350;2023-08-30T11:40:04;95602.16;;;17.98;100.00
596;BME280;19946;49.306;11.350;2023-08-30T11:43:06;95656.44;;;18.78;100.00
596;BME280;19946;49.306;11.350;2023-08-30T11:46:08;95646.69;;;17.98;100.00
596;BME280;19946;49.306;11.350;2023-08-30T11:49:08;95604.13;;;17.83;100.00
596;BME280;19946;49.306;11.350;2023-08-30T11:52:09;95612.56;;;17.85;100.00
596;BME280;19946;49.306;11.350;2023-08-30T11:55:09;95597.19;;;17.69;100.00
596;BME280;19946;49.306;11.350;2023-08-30T11:58:10;95644.25;;;17.97;100.00
596;BME280;19946;49.306;11.350;2023-08-30T12:01:11;95660.41;;;18.07;100.00
596;BME280;19946;49.306;11.350;2023-08-30T12:04:12;95613.41;;;17.58;100.00
596;BME280;19946;49.306;11.350;2023-08-30T12:07:23;95588.03;;;17.99;100.00
596;BME280;19946;49.306;11.350;2023-08-30T12:10:23;95572.25;;;18.53;100.00
596;BME280;19946;49.306;11.350;2023-08-30T12:13:25;95579.75;;;17.82;100.00
596;BME280;19946;49.306;11.350;2023-08-30T12:16:26;95648.41;;;18.32;100.00
596;BME280;19946;49.306;11.350;2023-08-30T12:19:28;95592.00;;;18.36;100.00
596;BME280;19946;49.306;11.350;2023-08-30T12:22:39;95644.16;;;19.12;100.00
596;BME280;19946;49.306;11.350;2023-08-30T12:25:39;95558.34;;;19.06;100.00
596;BME280;19946;49.306;11.350;2023-08-30T12:28:41;95630.19;;;19.31;88.89
596;BME280;19946;49.306;11.350;2023-08-30T12:31:44;95546.81;;;18.41;100.00
596;BME280;19946;49.306;11.350;2023-08-30T12:34:44;95630.34;;;18.57;100.00
596;BME280;19946;49.306;11.350;2023-08-30T12:37:44;95630.81;;;18.80;100.00
596;BME280;19946;49.306;11.350;2023-08-30T12:40:52;95636.69;;;18.21;100.00
596;BME280;19946;49.306;11.350;2023-08-30T12:43:53;95537.50;;;17.17;100.00
596;BME280;19946;49.306;11.350;2023-08-30T12:46:54;95635.88;;;18.14;100.00
596;BME280;19946;49.306;11.350;2023-08-30T12:49:54;95563.38;;;17.74;100.00
596;BME280;19946;49.306;11.350;2023-08-30T12:52:55;95637.84;;;18.73;100.00
596;BME280;19946;49.306;11.350;2023-08-30T12:55:55;95635.03;;;18.68;100.00
596;BME280;19946;49.306;11.350;2023-08-30T12:58:55;95586.72;;;18.23;100.00
596;BME280;19946;49.306;11.350;2023-08-30T13:01:55;95579.25;;;18.20;100.00
596;BME280;19946;49.306;11.350;2023-08-30T13:04:56;95622.53;;;18.03;100.00
596;BME280;19946;49.306;11.350;2023-08-30T13:07:56;95625.09;;;18.57;100.00
596;BME280;19946;49.306;11.350;2023-08-30T13:10:59;95563.16;;;18.43;100.00
596;BME280;19946;49.306;11.350;2023-08-30T13:13:59;95600.31;;;18.73;100.00
596;BME280;19946;49.306;11.350;2023-08-30T13:16:59;95549.56;;;18.06;100.00
596;BME280;19946;49.306;11.350;2023-08-30T13:20:00;95524.69;;;17.63;100.00
596;BME280;19946;49.306;11.350;2023-08-30T13:23:01;95572.22;;;18.34;100.00
596;BME280;19946;49.306;11.350;2023-08-30T13:26:03;95573.88;;;18.48;100.00
596;BME280;19946;49.306;11.350;2023-08-30T13:29:03;95621.09;;;18.61;100.00
596;BME280;19946;49.306;11.350;2023-08-30T13:32:04;95620.97;;;18.28;100.00
596;BME280;19946;49.306;11.350;2023-08-30T13:35:05;95564.84;;;17.96;100.00
596;BME280;19946;49.306;11.350;2023-08-30T13:38:05;95612.63;;;18.66;100.00
596;BME280;19946;49.306;11.350;2023-08-30T13:41:05;95620.09;;;18.75;100.00
596;BME280;19946;49.306;11.350;2023-08-30T13:44:06;95511.41;;;17.77;100.00
596;BME280;19946;49.306;11.350;2023-08-30T13:47:06;95567.72;;;18.01;100.00
596;BME280;19946;49.306;11.350;2023-08-30T13:50:07;95617.34;;;18.16;100.00
596;BME280;19946;49.306;11.350;2023-08-30T13:53:07;95604.75;;;17.92;100.00
596;BME280;19946;49.306;11.350;2023-08-30T13:56:07;95535.09;;;18.04;100.00
596;BME280;19946;49.306;11.350;2023-08-30T13:59:08;95597.19;;;18.30;100.00
596;BME280;19946;49.306;11.350;2023-08-30T14:02:08;95555.66;;;18.13;100.00
596;BME280;19946;49.306;11.350;2023-08-30T14:05:08;95542.84;;;17.77;100.00
596;BME280;19946;49.306;11.350;2023-08-30T14:08:09;95624.69;;;18.47;100.00
596;BME280;19946;49.306;11.350;2023-08-30T14:11:09;95558.13;;;18.35;100.00
596;BME280;19946;49.306;11.350;2023-08-30T14:14:10;95596.91;;;18.59;100.00
596;BME280;19946;49.306;11.350;2023-08-30T14:17:10;95605.13;;;18.56;100.00
596;BME280;19946;49.306;11.350;2023-08-30T14:20:11;95599.28;;;18.54;100.00
596;BME280;19946;49.306;11.350;2023-08-30T14:23:12;95602.97;;;17.99;100.00
596;BME280;19946;49.306;11.350;2023-08-30T14:26:13;95606.63;;;18.17;100.00
596;BME280;19946;49.306;11.350;2023-08-30T14:29:13;95563.72;;;18.18;100.00
596;BME280;19946;49.306;11.350;2023-08-30T14:32:14;95595.44;;;18.56;100.00
596;BME280;19946;49.306;11.350;2023-08-30T14:35:14;95616.06;;;18.59;100.00
596;BME280;19946;49.306;11.350;2023-08-30T14:38:14;95545.78;;;17.61;100.00
596;BME280;19946;49.306;11.350;2023-08-30T14:41:15;95565.50;;;17.57;100.00
596;BME280;19946;49.306;11.350;2023-08-30T14:44:17;95528.13;;;17.35;100.00
596;BME280;19946;49.306;11.350;2023-08-30T14:47:17;95585.59;;;17.84;100.00
596;BME280;19946;49.306;11.350;2023-08-30T14:50:18;95577.69;;;17.78;100.00
596;BME280;19946;49.306;11.350;2023-08-30T14:53:18;95534.06;;;17.50;100.00
596;BME280;19946;49.306;11.350;2023-08-30T14:56:19;95594.56;;;17.69;100.00
596;BME280;19946;49.306;11.350;2023-08-30T14:59:19;95530.72;;;16.66;100.00
596;BME280;19946;49.306;11.350;2023-08-30T15:02:19;95592.78;;;17.07;100.00
596;BME280;19946;49.306;11.350;2023-08-30T15:05:20;95578.06;;;16.57;100.00
596;BME280;19946;49.306;11.350;2023-08-30T15:08:22;95627.84;;;16.49;100.00
596;BME280;19946;49.306;11.350;2023-08-30T15:11:23;95632.25;;;16.48;100.00
596;BME280;19946;49.306;11.350;2023-08-30T15:14:24;95640.19;;;16.55;100.00
596;BME280;19946;49.306;11.350;2023-08-30T15:17:24;95585.34;;;16.40;100.00
596;BME280;19946;49.306;11.350;2023-08-30T15:20:25;95521.72;;;16.05;100.00
596;BME280;19946;49.306;11.350;2023-08-30T15:23:25;95578.56;;;16.67;100.00
596;BME280;19946;49.306;11.350;2023-08-30T15:26:25;95626.16;;;17.05;100.00
596;BME280;19946;49.306;11.350;2023-08-30T15:29:26;95630.53;;;16.98;100.00
596;BME280;19946;49.306;11.350;2023-08-30T15:32:26;95553.63;;;16.22;100.00
596;BME280;19946;49.306;11.350;2023-08-30T15:35:28;95632.63;;;16.88;100.00
596;BME280;19946;49.306;11.350;2023-08-30T15:38:28;95612.72;;;17.08;100.00
596;BME280;19946;49.306;11.350;2023-08-30T15:41:29;95612.47;;;17.03;100.00
596;BME280;19946;49.306;11.350;2023-08-30T15:44:29;95626.09;;;16.98;100.00
596;BME280;19946;49.306;11.350;2023-08-30T15:47:31;95551.91;;;16.57;100.00
596;BME280;19946;49.306;11.350;2023-08-30T15:50:31;95620.97;;;16.84;100.00
596;BME280;19946;49.306;11.350;2023-08-30T15:53:31;95566.09;;;16.90;100.00
596;BME280;19946;49.306;11.350;2023-08-30T15:56:32;95591.00;;;17.14;100.00
596;BME280;19946;49.306;11.350;2023-08-30T15:59:32;95628.25;;;17.16;100.00
596;BME280;19946;49.306;11.350;2023-08-30T16:02:33;95620.78;;;17.41;100.00